EDFHLEAL

Guest
Details From EDFH - Frankfurt Hahn
To LEAL - Alicante
Flight Number -
Tags decoded
Created
Modified
Stats Distance 776 nm / 1,438 km
Max Altitude 0 ft / 0 m
Waypoints 2
Social Downloads 0
Likes 0
Share VATSIM

Download

Looking for another format? Having issues loading an existing format? Contact us
Advertisement - Login to hide

Notes

Requested: EDFH LEAL

Route

EDFH LEAL

ID Type Via Altitude Latitude Longitude Leg Dist Tot Dist Heading (true) Name
O EDFH APT - 0 ft / 0 m 49.94581˚ 7.26108˚ - 0 nm - Frankfurt Hahn
O LEAL APT - 0 ft / 0 m 38.28217˚ -0.55816˚ 776 nm 776 nm 209° / 203° Alicante

Altitude Profile

Advertisement - Login to hide

Weather


0- 5 10 15 20 25 30 35+ Temperature / ° C

Clouds and Precipitation
Forecast for 2017-12-13 00:00 UTC. Updated 39 minutes ago

Ground ~20,000 ft ~40,000 ft Winds

EDFH

Details ICAO EDFH (HHN)
Name Frankfurt Hahn
Region Germany - Civil
Timezone Europe/Berlin (UTC+1.0)
Stats Elevation 1,649 ft / 503 m (AMSL)
Location 49.945808° 7.261082°
Runways 1
Magnetic Variation 1.981° E

METAR

EDFH 121920Z 25006KT 220V280 9999 FEW012 SCT022 00/M02 Q1014

Decode

TAF

TAF EDFH 121700Z 1218/1318 24008KT 9999 BKN020 TEMPO 1220/1309 BKN006 BECMG 1305/1307 22015G25KT TEMPO 1310/1316 22020G35KT 1200 SN BKN004 TEMPO 1316/1318 2000 SNRA BKN005

Decode

Departure Runways

ID Width Length Bearing (true) Bearing (mag) Surface Threshold Offset Overrun Length
03 148 ft / 45 m 12,457 ft / 3,797 m 32.37° 30.39° Asphalt 3,461 ft / 1,055 m 0 ft / 0 m
21 148 ft / 45 m 12,457 ft / 3,797 m 212.39° 210.41° Asphalt 984 ft / 300 m 0 ft / 0 m

LEAL

Details ICAO LEAL (ALC)
Name Alicante
Region Spain
Timezone Europe/Madrid (UTC+1.0)
Stats Elevation 141 ft / 43 m (AMSL)
Location 38.282169° -0.558157°
Runways 1
Magnetic Variation 0.183° E

METAR

LEAL 121930Z 29006KT CAVOK 09/01 Q1021 NOSIG

Decode

TAF

TAF TAF LEAL 121700Z 1218/1318 31008KT CAVOK TX17/1312Z TN04/1306Z TEMPO 1218/1220 VRB04KT TEMPO 1313/1318 24010KT

Decode

Destination Runways

ID Width Length Bearing (true) Bearing (mag) Surface Threshold Offset Overrun Length
10 148 ft / 45 m 9,799 ft / 2,987 m 100.07° 99.89° Asphalt 0 ft / 0 m 164 ft / 50 m
28 148 ft / 45 m 9,799 ft / 2,987 m 280.09° 279.91° Asphalt 0 ft / 0 m 197 ft / 60 m

Approach Navaids

Runway Type Ident Frequency Range Bearing (true) Bearing (mag) Slope Elevation
10 Localiser IAT 110.30 MHz 18 nm / 33 km 100.09° 99.91° - 29 ft / 9 m (AMSL)
10 Glidescope IAT 110.30 MHz 10 nm / 19 km 100.09° 99.91° 3.00° 129 ft / 39 m (AMSL)
10 DME IAT 110.30 MHz 18 nm / 33 km - - - 129 ft / 39 m (AMSL)

Popular Alternatives